Notice: Undefined index: language in /storage/ssd3/513/4781513/public_html/vam/index.php on line 25
IF United Virtual

www.000webhost.com
 METAR AND TAF INFORMATION
METAR FOR KCHO
ADDS - METARS form results

(1042 UTC 21 March 2019)
Data provider http://aviationweather.gov/metar/data/
 
METAR text: KCHO 211030Z 00000KT 2SM +RA BR BKN003 OVC021 06/04 A3000 RMK AO2 P0011 T00610044
Conditions at: KCHO (CHARLOTTESVILLE , VA, US) observed 1030 UTC 21 March 2019
Temperature: 6.1°C (43°F)
Dewpoint: 4.4°C (40°F) [RH = 89%]
Pressure (altimeter): 30.00 inches Hg (1016.0 mb)
Winds: calm
Visibility: 2.00 miles (3.22 km)
Ceiling: 300 feet AGL
Clouds: broken clouds at 300 feet AGL
overcast cloud deck at 2100 feet AGL
Weather: +RA BR  (heavy rain, mist)

METAR text: KCHO 211021Z 00000KT 2 1/2SM RA BR SCT003 OVC021 06/04 A2999 RMK AO2 P0008 T00610044
Conditions at: KCHO (CHARLOTTESVILLE , VA, US) observed 1021 UTC 21 March 2019
Temperature: 6.1°C (43°F)
Dewpoint: 4.4°C (40°F) [RH = 89%]
Pressure (altimeter): 29.99 inches Hg (1015.7 mb)
Winds: calm
Visibility: 2.50 miles (4.02 km)
Ceiling: 2100 feet AGL
Clouds: scattered clouds at 300 feet AGL
overcast cloud deck at 2100 feet AGL
Weather: RA BR  (moderate rain, mist)

METAR text: KCHO 211001Z 03004KT 2 1/2SM RA BR OVC021 06/04 A2998 RMK AO2 P0002 T00610039
Conditions at: KCHO (CHARLOTTESVILLE , VA, US) observed 1001 UTC 21 March 2019
Temperature: 6.1°C (43°F)
Dewpoint: 3.9°C (39°F) [RH = 86%]
Pressure (altimeter): 29.98 inches Hg (1015.3 mb)
Winds: from the NNE (30 degrees) at 5 MPH (4 knots; 2.1 m/s)
Visibility: 2.50 miles (4.02 km)
Ceiling: 2100 feet AGL
Clouds: overcast cloud deck at 2100 feet AGL
Weather: RA BR  (moderate rain, mist)

METAR text: KCHO 210953Z 03005KT 3SM -RA BR OVC021 06/04 A2998 RMK AO2 SLP150 P0002 T00610039
Conditions at: KCHO (CHARLOTTESVILLE , VA, US) observed 0953 UTC 21 March 2019
Temperature: 6.1°C (43°F)
Dewpoint: 3.9°C (39°F) [RH = 86%]
Pressure (altimeter): 29.98 inches Hg (1015.3 mb)
[Sea-level pressure: 1015.0 mb]
Winds: from the NNE (30 degrees) at 6 MPH (5 knots; 2.6 m/s)
Visibility: 3 miles ( 5 km)
Ceiling: 2100 feet AGL
Clouds: overcast cloud deck at 2100 feet AGL
Weather: -RA BR  (light rain, mist)

Forecast for: KCHO (CHARLOTTESVILLE , VA, US)
Text: KCHO 210535Z 2106/2206 VRB03KT 6SM -SHRA BKN025 OVC050
Forecast period: 0600 to 0900 UTC 21 March 2019
Forecast type: FROM: standard forecast or significant change
Winds: variable direction winds at 3 MPH (3 knots; 1.5 m/s)
Visibility: 6 miles (10 km)
Ceiling: 2500 feet AGL
Clouds: broken clouds at 2500 feet AGL
overcast cloud deck at 5000 feet AGL
Weather: -SHRA  (light rain showers)
Text: FM210900 VRB03KT 2SM RA BKN008 OVC015
Forecast period: 0900 to 1600 UTC 21 March 2019
Forecast type: FROM: standard forecast or significant change
Winds: variable direction winds at 3 MPH (3 knots; 1.5 m/s)
Visibility: 2.00 miles (3.22 km)
Ceiling: 800 feet AGL
Clouds: broken clouds at 800 feet AGL
overcast cloud deck at 1500 feet AGL
Weather: RA  (moderate rain)
Text: FM211600 34005KT 5SM -RA SCT008 BKN015 OVC050
Forecast period: 1600 to 2300 UTC 21 March 2019
Forecast type: FROM: standard forecast or significant change
Winds: from the NNW (340 degrees) at 6 MPH (5 knots; 2.6 m/s)
Visibility: 5 miles (8 km)
Ceiling: 1500 feet AGL
Clouds: scattered clouds at 800 feet AGL
broken clouds at 1500 feet AGL
overcast cloud deck at 5000 feet AGL
Weather: -RA  (light rain)
Text: FM212300 31008G16KT P6SM BKN050
Forecast period: 2300 UTC 21 March 2019 to 0600 UTC 22 March 2019
Forecast type: FROM: standard forecast or significant change
Winds: from the NW (310 degrees) at 9 MPH (8 knots; 4.1 m/s)
gusting to 18 MPH (16 knots; 8.2 m/s)
Visibility: 6 or more miles 10+ km)
Ceiling: 5000 feet AGL
Clouds: broken clouds at 5000 feet AGL
Weather: no significant weather forecast for this period

 AIRPORT MAP

 RUNWAY INFORMATION
Runway 03 Runway length 6001 ft Runway width 150 ft
Runway elevation 639 ft Runway displaced threshold 0 ft Runway heading 22
Runway 21 Runway length 6001 ft Runway width 150 ft
Runway elevation 620 ft Runway displaced threshold 0 ft Runway heading 202

 AIRPORT FREQUENCIES
Type A/D Name POTOMAC AP Frequency 132.85 MHZ
Type ASOS Name ASOS Frequency 118.425 MHZ
Type ATIS Name ATIS Frequency 118.425 MHZ
Type CTAF Name CTAF Frequency 124.5 MHZ
Type GND Name GND Frequency 121.9 MHZ
Type RDO Name LEESBURG R Frequency 122.2 MHZ
Type TWR Name TWR Frequency 124.5 MHZ
Type UNIC Name UNICOM Frequency 122.95 MHZ

 AIRPORT NEAR NAVIGATION AIDS
Type NDB Name Azalea Park Frequency 336 KHZ



Powered by Virtual Airlines Manager [v2.6.2]